sensor_id;sensor_type;location;lat;lon;timestamp;P1;durP1;ratioP1;P2;durP2;ratioP2
9106;SDS011;4589;48.690;8.952;2023-05-02T00:00:13;39.67;;;17.70;;
9106;SDS011;4589;48.690;8.952;2023-05-02T00:02:38;28.97;;;15.73;;
9106;SDS011;4589;48.690;8.952;2023-05-02T00:05:05;39.73;;;17.30;;
9106;SDS011;4589;48.690;8.952;2023-05-02T00:07:31;36.07;;;17.70;;
9106;SDS011;4589;48.690;8.952;2023-05-02T00:09:57;37.57;;;18.57;;
9106;SDS011;4589;48.690;8.952;2023-05-02T00:12:26;33.40;;;18.13;;
9106;SDS011;4589;48.690;8.952;2023-05-02T00:14:51;37.07;;;18.33;;
9106;SDS011;4589;48.690;8.952;2023-05-02T00:17:18;43.77;;;20.17;;
9106;SDS011;4589;48.690;8.952;2023-05-02T00:19:44;33.30;;;19.27;;
9106;SDS011;4589;48.690;8.952;2023-05-02T00:22:10;39.33;;;20.53;;
9106;SDS011;4589;48.690;8.952;2023-05-02T00:24:36;35.70;;;18.27;;
9106;SDS011;4589;48.690;8.952;2023-05-02T00:27:02;40.70;;;18.17;;
9106;SDS011;4589;48.690;8.952;2023-05-02T00:29:28;35.17;;;17.43;;
9106;SDS011;4589;48.690;8.952;2023-05-02T00:31:54;39.97;;;18.70;;
9106;SDS011;4589;48.690;8.952;2023-05-02T00:34:21;33.80;;;18.63;;
9106;SDS011;4589;48.690;8.952;2023-05-02T00:36:47;43.50;;;18.73;;
9106;SDS011;4589;48.690;8.952;2023-05-02T00:39:13;39.03;;;20.80;;
9106;SDS011;4589;48.690;8.952;2023-05-02T00:41:39;37.00;;;18.87;;
9106;SDS011;4589;48.690;8.952;2023-05-02T00:44:05;36.20;;;18.97;;
9106;SDS011;4589;48.690;8.952;2023-05-02T00:46:31;35.13;;;18.20;;
9106;SDS011;4589;48.690;8.952;2023-05-02T00:48:57;42.60;;;18.40;;
9106;SDS011;4589;48.690;8.952;2023-05-02T00:51:23;33.20;;;16.50;;
9106;SDS011;4589;48.690;8.952;2023-05-02T00:53:48;45.70;;;21.30;;
9106;SDS011;4589;48.690;8.952;2023-05-02T00:56:14;51.53;;;19.43;;
9106;SDS011;4589;48.690;8.952;2023-05-02T00:58:40;38.90;;;18.50;;
9106;SDS011;4589;48.690;8.952;2023-05-02T01:01:10;38.10;;;19.10;;
9106;SDS011;4589;48.690;8.952;2023-05-02T01:04:12;42.33;;;18.73;;
9106;SDS011;4589;48.690;8.952;2023-05-02T01:15:00;37.57;;;17.03;;
9106;SDS011;4589;48.690;8.952;2023-05-02T01:17:29;43.20;;;18.70;;
9106;SDS011;4589;48.690;8.952;2023-05-02T01:19:57;38.30;;;17.17;;
9106;SDS011;4589;48.690;8.952;2023-05-02T01:22:25;41.60;;;19.07;;
9106;SDS011;4589;48.690;8.952;2023-05-02T01:30:27;32.23;;;17.77;;
9106;SDS011;4589;48.690;8.952;2023-05-02T01:32:55;36.73;;;17.57;;
9106;SDS011;4589;48.690;8.952;2023-05-02T01:35:22;38.10;;;18.20;;
9106;SDS011;4589;48.690;8.952;2023-05-02T01:37:50;36.50;;;18.67;;
9106;SDS011;4589;48.690;8.952;2023-05-02T01:40:18;40.67;;;20.10;;
9106;SDS011;4589;48.690;8.952;2023-05-02T01:42:46;37.53;;;18.67;;
9106;SDS011;4589;48.690;8.952;2023-05-02T01:45:13;43.77;;;18.10;;
9106;SDS011;4589;48.690;8.952;2023-05-02T01:47:40;42.97;;;18.83;;
9106;SDS011;4589;48.690;8.952;2023-05-02T01:50:10;43.07;;;20.27;;
9106;SDS011;4589;48.690;8.952;2023-05-02T01:52:37;39.60;;;20.37;;
9106;SDS011;4589;48.690;8.952;2023-05-02T01:55:05;49.77;;;22.30;;
9106;SDS011;4589;48.690;8.952;2023-05-02T01:57:35;42.30;;;21.30;;
9106;SDS011;4589;48.690;8.952;2023-05-02T02:00:04;49.23;;;22.17;;
9106;SDS011;4589;48.690;8.952;2023-05-02T02:02:31;54.30;;;20.80;;
9106;SDS011;4589;48.690;8.952;2023-05-02T02:04:58;45.70;;;21.40;;
9106;SDS011;4589;48.690;8.952;2023-05-02T02:07:28;44.53;;;22.50;;
9106;SDS011;4589;48.690;8.952;2023-05-02T02:09:54;55.00;;;21.37;;
9106;SDS011;4589;48.690;8.952;2023-05-02T02:12:22;73.07;;;25.90;;
9106;SDS011;4589;48.690;8.952;2023-05-02T02:20:19;48.73;;;23.60;;
9106;SDS011;4589;48.690;8.952;2023-05-02T02:22:46;48.37;;;23.20;;
9106;SDS011;4589;48.690;8.952;2023-05-02T02:25:13;63.93;;;24.27;;
9106;SDS011;4589;48.690;8.952;2023-05-02T02:27:40;46.27;;;22.47;;
9106;SDS011;4589;48.690;8.952;2023-05-02T02:30:07;45.33;;;20.53;;
9106;SDS011;4589;48.690;8.952;2023-05-02T02:32:33;50.40;;;19.40;;
9106;SDS011;4589;48.690;8.952;2023-05-02T02:34:59;46.53;;;21.07;;
9106;SDS011;4589;48.690;8.952;2023-05-02T02:37:30;45.40;;;21.90;;
9106;SDS011;4589;48.690;8.952;2023-05-02T02:40:43;44.10;;;21.00;;
9106;SDS011;4589;48.690;8.952;2023-05-02T02:43:02;53.20;;;21.70;;
9106;SDS011;4589;48.690;8.952;2023-05-02T02:48:34;50.90;;;23.90;;
9106;SDS011;4589;48.690;8.952;2023-05-02T02:51:06;48.03;;;23.57;;
9106;SDS011;4589;48.690;8.952;2023-05-02T02:56:12;61.13;;;23.97;;
9106;SDS011;4589;48.690;8.952;2023-05-02T02:58:54;61.23;;;24.80;;
9106;SDS011;4589;48.690;8.952;2023-05-02T03:01:25;71.27;;;25.47;;
9106;SDS011;4589;48.690;8.952;2023-05-02T03:03:54;48.73;;;22.57;;
9106;SDS011;4589;48.690;8.952;2023-05-02T03:06:22;66.77;;;26.03;;
9106;SDS011;4589;48.690;8.952;2023-05-02T03:08:48;72.13;;;24.80;;
9106;SDS011;4589;48.690;8.952;2023-05-02T03:11:14;67.53;;;25.73;;
9106;SDS011;4589;48.690;8.952;2023-05-02T03:13:40;46.63;;;23.10;;
9106;SDS011;4589;48.690;8.952;2023-05-02T03:18:51;51.27;;;22.10;;
9106;SDS011;4589;48.690;8.952;2023-05-02T03:21:17;50.03;;;21.90;;
9106;SDS011;4589;48.690;8.952;2023-05-02T03:23:42;53.00;;;22.93;;
9106;SDS011;4589;48.690;8.952;2023-05-02T03:26:08;64.70;;;23.97;;
9106;SDS011;4589;48.690;8.952;2023-05-02T03:28:34;61.30;;;24.37;;
9106;SDS011;4589;48.690;8.952;2023-05-02T03:31:00;53.50;;;23.43;;
9106;SDS011;4589;48.690;8.952;2023-05-02T03:33:26;66.83;;;25.53;;
9106;SDS011;4589;48.690;8.952;2023-05-02T03:35:52;73.87;;;25.87;;
9106;SDS011;4589;48.690;8.952;2023-05-02T03:38:18;65.90;;;22.53;;
9106;SDS011;4589;48.690;8.952;2023-05-02T03:40:43;60.47;;;23.37;;
9106;SDS011;4589;48.690;8.952;2023-05-02T03:43:09;65.17;;;23.90;;
9106;SDS011;4589;48.690;8.952;2023-05-02T03:45:35;61.17;;;23.47;;
9106;SDS011;4589;48.690;8.952;2023-05-02T03:48:01;54.20;;;20.50;;
9106;SDS011;4589;48.690;8.952;2023-05-02T03:50:27;77.20;;;26.77;;
9106;SDS011;4589;48.690;8.952;2023-05-02T03:52:53;62.03;;;25.77;;
9106;SDS011;4589;48.690;8.952;2023-05-02T03:55:19;56.17;;;24.20;;
9106;SDS011;4589;48.690;8.952;2023-05-02T03:57:45;58.23;;;21.63;;
9106;SDS011;4589;48.690;8.952;2023-05-02T04:00:11;69.70;;;22.27;;
9106;SDS011;4589;48.690;8.952;2023-05-02T04:02:37;58.50;;;22.83;;
9106;SDS011;4589;48.690;8.952;2023-05-02T04:05:02;61.57;;;23.90;;
9106;SDS011;4589;48.690;8.952;2023-05-02T04:07:29;56.77;;;24.23;;
9106;SDS011;4589;48.690;8.952;2023-05-02T04:09:55;48.47;;;22.40;;
9106;SDS011;4589;48.690;8.952;2023-05-02T04:12:20;43.40;;;20.40;;
9106;SDS011;4589;48.690;8.952;2023-05-02T04:14:46;50.50;;;20.43;;
9106;SDS011;4589;48.690;8.952;2023-05-02T04:17:12;48.37;;;20.47;;
9106;SDS011;4589;48.690;8.952;2023-05-02T04:19:39;43.97;;;20.27;;
9106;SDS011;4589;48.690;8.952;2023-05-02T04:22:05;60.10;;;21.90;;
9106;SDS011;4589;48.690;8.952;2023-05-02T04:24:31;44.87;;;20.73;;
9106;SDS011;4589;48.690;8.952;2023-05-02T04:26:57;42.83;;;20.07;;
9106;SDS011;4589;48.690;8.952;2023-05-02T04:29:23;41.10;;;20.47;;
9106;SDS011;4589;48.690;8.952;2023-05-02T04:31:49;54.03;;;22.50;;
9106;SDS011;4589;48.690;8.952;2023-05-02T04:34:15;49.03;;;21.93;;
9106;SDS011;4589;48.690;8.952;2023-05-02T04:36:43;57.20;;;24.80;;
9106;SDS011;4589;48.690;8.952;2023-05-02T04:39:09;59.83;;;22.60;;
9106;SDS011;4589;48.690;8.952;2023-05-02T04:41:35;45.20;;;21.60;;
9106;SDS011;4589;48.690;8.952;2023-05-02T04:44:00;48.53;;;21.97;;
9106;SDS011;4589;48.690;8.952;2023-05-02T04:46:26;51.10;;;21.80;;
9106;SDS011;4589;48.690;8.952;2023-05-02T04:48:52;50.37;;;22.40;;
9106;SDS011;4589;48.690;8.952;2023-05-02T04:51:18;58.23;;;24.20;;
9106;SDS011;4589;48.690;8.952;2023-05-02T04:53:44;55.47;;;22.53;;
9106;SDS011;4589;48.690;8.952;2023-05-02T04:56:10;56.13;;;23.97;;
9106;SDS011;4589;48.690;8.952;2023-05-02T04:58:36;60.80;;;23.30;;
9106;SDS011;4589;48.690;8.952;2023-05-02T05:01:02;58.23;;;23.50;;
9106;SDS011;4589;48.690;8.952;2023-05-02T05:03:27;54.50;;;23.20;;
9106;SDS011;4589;48.690;8.952;2023-05-02T05:05:54;52.83;;;23.50;;
9106;SDS011;4589;48.690;8.952;2023-05-02T05:08:21;54.87;;;23.30;;
9106;SDS011;4589;48.690;8.952;2023-05-02T05:10:46;53.97;;;24.10;;
9106;SDS011;4589;48.690;8.952;2023-05-02T05:13:12;43.10;;;22.40;;
9106;SDS011;4589;48.690;8.952;2023-05-02T05:15:38;59.20;;;24.50;;
9106;SDS011;4589;48.690;8.952;2023-05-02T05:18:04;53.23;;;24.00;;
9106;SDS011;4589;48.690;8.952;2023-05-02T05:20:31;47.93;;;24.10;;
9106;SDS011;4589;48.690;8.952;2023-05-02T05:22:57;56.87;;;29.67;;
9106;SDS011;4589;48.690;8.952;2023-05-02T05:25:24;53.97;;;26.27;;
9106;SDS011;4589;48.690;8.952;2023-05-02T05:27:51;43.30;;;22.80;;
9106;SDS011;4589;48.690;8.952;2023-05-02T05:30:19;49.37;;;23.27;;
9106;SDS011;4589;48.690;8.952;2023-05-02T05:32:45;65.87;;;26.27;;
9106;SDS011;4589;48.690;8.952;2023-05-02T05:35:11;46.20;;;24.60;;
9106;SDS011;4589;48.690;8.952;2023-05-02T05:37:37;63.33;;;25.83;;
9106;SDS011;4589;48.690;8.952;2023-05-02T05:40:04;62.40;;;25.33;;
9106;SDS011;4589;48.690;8.952;2023-05-02T05:42:31;61.90;;;23.37;;
9106;SDS011;4589;48.690;8.952;2023-05-02T05:44:56;55.80;;;25.20;;
9106;SDS011;4589;48.690;8.952;2023-05-02T05:47:22;57.67;;;25.63;;
9106;SDS011;4589;48.690;8.952;2023-05-02T05:49:54;45.00;;;23.00;;
9106;SDS011;4589;48.690;8.952;2023-05-02T05:52:20;44.63;;;23.40;;
9106;SDS011;4589;48.690;8.952;2023-05-02T05:54:46;46.47;;;25.53;;
9106;SDS011;4589;48.690;8.952;2023-05-02T05:57:12;60.20;;;26.93;;
9106;SDS011;4589;48.690;8.952;2023-05-02T05:59:38;56.90;;;26.83;;
9106;SDS011;4589;48.690;8.952;2023-05-02T06:02:04;53.40;;;28.85;;
9106;SDS011;4589;48.690;8.952;2023-05-02T06:04:30;54.43;;;28.30;;
9106;SDS011;4589;48.690;8.952;2023-05-02T06:06:56;56.80;;;28.53;;
9106;SDS011;4589;48.690;8.952;2023-05-02T06:09:22;61.10;;;24.57;;
9106;SDS011;4589;48.690;8.952;2023-05-02T06:11:47;50.33;;;25.93;;
9106;SDS011;4589;48.690;8.952;2023-05-02T06:14:13;59.80;;;30.43;;
9106;SDS011;4589;48.690;8.952;2023-05-02T06:16:38;53.53;;;27.80;;
9106;SDS011;4589;48.690;8.952;2023-05-02T06:19:04;51.17;;;25.57;;
9106;SDS011;4589;48.690;8.952;2023-05-02T06:21:30;70.23;;;29.87;;
9106;SDS011;4589;48.690;8.952;2023-05-02T06:23:55;60.80;;;28.57;;
9106;SDS011;4589;48.690;8.952;2023-05-02T06:26:21;72.67;;;29.70;;
9106;SDS011;4589;48.690;8.952;2023-05-02T06:28:46;61.70;;;29.10;;
9106;SDS011;4589;48.690;8.952;2023-05-02T06:31:12;72.07;;;30.77;;
9106;SDS011;4589;48.690;8.952;2023-05-02T06:33:38;56.33;;;27.63;;
9106;SDS011;4589;48.690;8.952;2023-05-02T06:36:03;61.83;;;28.40;;
9106;SDS011;4589;48.690;8.952;2023-05-02T06:38:29;76.50;;;31.40;;
9106;SDS011;4589;48.690;8.952;2023-05-02T06:40:55;82.57;;;33.60;;
9106;SDS011;4589;48.690;8.952;2023-05-02T06:43:20;81.23;;;35.20;;
9106;SDS011;4589;48.690;8.952;2023-05-02T06:45:46;94.20;;;36.17;;
9106;SDS011;4589;48.690;8.952;2023-05-02T06:48:11;93.23;;;36.80;;
9106;SDS011;4589;48.690;8.952;2023-05-02T06:50:37;91.43;;;37.43;;
9106;SDS011;4589;48.690;8.952;2023-05-02T06:53:03;93.13;;;38.13;;
9106;SDS011;4589;48.690;8.952;2023-05-02T06:55:30;93.47;;;37.47;;
9106;SDS011;4589;48.690;8.952;2023-05-02T06:57:55;78.83;;;34.17;;
9106;SDS011;4589;48.690;8.952;2023-05-02T07:00:21;87.40;;;35.80;;
9106;SDS011;4589;48.690;8.952;2023-05-02T07:02:48;79.73;;;36.40;;
9106;SDS011;4589;48.690;8.952;2023-05-02T07:05:14;86.83;;;39.27;;
9106;SDS011;4589;48.690;8.952;2023-05-02T07:07:43;96.70;;;36.17;;
9106;SDS011;4589;48.690;8.952;2023-05-02T07:10:09;91.10;;;39.87;;
9106;SDS011;4589;48.690;8.952;2023-05-02T07:12:35;103.53;;;40.43;;
9106;SDS011;4589;48.690;8.952;2023-05-02T07:15:01;97.73;;;40.50;;
9106;SDS011;4589;48.690;8.952;2023-05-02T07:17:27;94.97;;;39.03;;
9106;SDS011;4589;48.690;8.952;2023-05-02T07:19:52;99.20;;;39.60;;
9106;SDS011;4589;48.690;8.952;2023-05-02T07:22:18;91.57;;;39.17;;
9106;SDS011;4589;48.690;8.952;2023-05-02T07:24:44;103.43;;;40.50;;
9106;SDS011;4589;48.690;8.952;2023-05-02T07:27:11;96.13;;;40.47;;
9106;SDS011;4589;48.690;8.952;2023-05-02T07:29:37;90.40;;;38.77;;
9106;SDS011;4589;48.690;8.952;2023-05-02T07:32:03;76.10;;;35.93;;
9106;SDS011;4589;48.690;8.952;2023-05-02T07:34:29;95.40;;;39.20;;
9106;SDS011;4589;48.690;8.952;2023-05-02T07:36:56;75.07;;;37.53;;
9106;SDS011;4589;48.690;8.952;2023-05-02T07:39:23;85.40;;;36.93;;
9106;SDS011;4589;48.690;8.952;2023-05-02T07:41:52;70.23;;;35.43;;
9106;SDS011;4589;48.690;8.952;2023-05-02T07:44:18;74.80;;;36.57;;
9106;SDS011;4589;48.690;8.952;2023-05-02T07:46:44;80.33;;;38.07;;
9106;SDS011;4589;48.690;8.952;2023-05-02T07:49:10;68.70;;;35.33;;
9106;SDS011;4589;48.690;8.952;2023-05-02T07:51:36;73.90;;;37.80;;
9106;SDS011;4589;48.690;8.952;2023-05-02T07:54:13;70.67;;;36.37;;
9106;SDS011;4589;48.690;8.952;2023-05-02T07:56:39;59.93;;;36.70;;
9106;SDS011;4589;48.690;8.952;2023-05-02T07:59:06;57.37;;;33.57;;
9106;SDS011;4589;48.690;8.952;2023-05-02T08:01:32;55.57;;;35.10;;
9106;SDS011;4589;48.690;8.952;2023-05-02T08:03:57;48.97;;;34.03;;
9106;SDS011;4589;48.690;8.952;2023-05-02T08:06:23;51.77;;;33.57;;
9106;SDS011;4589;48.690;8.952;2023-05-02T08:08:49;47.37;;;33.23;;
9106;SDS011;4589;48.690;8.952;2023-05-02T08:11:15;56.60;;;34.70;;
9106;SDS011;4589;48.690;8.952;2023-05-02T08:13:41;49.80;;;32.70;;
9106;SDS011;4589;48.690;8.952;2023-05-02T08:16:07;49.37;;;32.60;;
9106;SDS011;4589;48.690;8.952;2023-05-02T08:18:33;58.97;;;35.20;;
9106;SDS011;4589;48.690;8.952;2023-05-02T08:20:58;49.63;;;32.23;;
9106;SDS011;4589;48.690;8.952;2023-05-02T08:23:24;57.20;;;34.20;;
9106;SDS011;4589;48.690;8.952;2023-05-02T08:25:51;49.73;;;33.60;;
9106;SDS011;4589;48.690;8.952;2023-05-02T08:28:17;51.70;;;35.90;;
9106;SDS011;4589;48.690;8.952;2023-05-02T08:30:43;53.30;;;36.47;;
9106;SDS011;4589;48.690;8.952;2023-05-02T08:33:09;57.37;;;37.80;;
9106;SDS011;4589;48.690;8.952;2023-05-02T08:35:35;49.97;;;35.30;;
9106;SDS011;4589;48.690;8.952;2023-05-02T08:38:01;53.70;;;35.27;;
9106;SDS011;4589;48.690;8.952;2023-05-02T08:40:26;53.20;;;36.23;;
9106;SDS011;4589;48.690;8.952;2023-05-02T08:42:52;56.30;;;37.50;;
9106;SDS011;4589;48.690;8.952;2023-05-02T08:45:19;50.00;;;36.43;;
9106;SDS011;4589;48.690;8.952;2023-05-02T08:47:46;52.87;;;34.63;;
9106;SDS011;4589;48.690;8.952;2023-05-02T08:50:13;44.03;;;33.70;;
9106;SDS011;4589;48.690;8.952;2023-05-02T08:52:41;38.73;;;30.47;;
9106;SDS011;4589;48.690;8.952;2023-05-02T08:55:09;41.33;;;32.30;;
9106;SDS011;4589;48.690;8.952;2023-05-02T08:57:36;39.13;;;31.60;;
9106;SDS011;4589;48.690;8.952;2023-05-02T09:00:03;35.10;;;30.27;;
9106;SDS011;4589;48.690;8.952;2023-05-02T09:05:04;36.20;;;29.33;;
9106;SDS011;4589;48.690;8.952;2023-05-02T09:07:41;40.83;;;29.60;;
9106;SDS011;4589;48.690;8.952;2023-05-02T09:10:12;39.03;;;32.70;;
9106;SDS011;4589;48.690;8.952;2023-05-02T09:12:38;35.77;;;29.83;;
9106;SDS011;4589;48.690;8.952;2023-05-02T09:17:40;35.03;;;29.53;;
9106;SDS011;4589;48.690;8.952;2023-05-02T09:20:07;34.70;;;28.73;;
9106;SDS011;4589;48.690;8.952;2023-05-02T09:22:33;42.13;;;30.63;;
9106;SDS011;4589;48.690;8.952;2023-05-02T09:24:59;36.80;;;30.40;;
9106;SDS011;4589;48.690;8.952;2023-05-02T09:27:26;36.83;;;29.83;;
9106;SDS011;4589;48.690;8.952;2023-05-02T09:29:51;37.40;;;28.87;;
9106;SDS011;4589;48.690;8.952;2023-05-02T09:32:43;35.40;;;28.70;;
9106;SDS011;4589;48.690;8.952;2023-05-02T09:35:10;31.87;;;26.47;;
9106;SDS011;4589;48.690;8.952;2023-05-02T09:37:37;30.37;;;26.87;;
9106;SDS011;4589;48.690;8.952;2023-05-02T09:40:06;29.37;;;25.80;;
9106;SDS011;4589;48.690;8.952;2023-05-02T09:42:33;35.90;;;27.90;;
9106;SDS011;4589;48.690;8.952;2023-05-02T09:45:00;28.60;;;25.60;;
9106;SDS011;4589;48.690;8.952;2023-05-02T09:47:25;28.53;;;25.53;;
9106;SDS011;4589;48.690;8.952;2023-05-02T09:49:51;28.73;;;25.60;;
9106;SDS011;4589;48.690;8.952;2023-05-02T09:52:17;27.80;;;24.90;;
9106;SDS011;4589;48.690;8.952;2023-05-02T09:54:47;32.07;;;26.00;;
9106;SDS011;4589;48.690;8.952;2023-05-02T09:57:17;25.13;;;22.40;;
9106;SDS011;4589;48.690;8.952;2023-05-02T09:59:55;25.30;;;22.60;;
9106;SDS011;4589;48.690;8.952;2023-05-02T10:02:23;28.20;;;23.57;;
9106;SDS011;4589;48.690;8.952;2023-05-02T10:04:49;24.63;;;21.63;;
9106;SDS011;4589;48.690;8.952;2023-05-02T10:07:17;23.00;;;20.57;;
9106;SDS011;4589;48.690;8.952;2023-05-02T10:09:44;22.00;;;19.57;;
9106;SDS011;4589;48.690;8.952;2023-05-02T10:12:13;22.90;;;19.53;;
9106;SDS011;4589;48.690;8.952;2023-05-02T10:14:39;22.00;;;17.80;;
9106;SDS011;4589;48.690;8.952;2023-05-02T10:17:19;20.47;;;18.40;;
9106;SDS011;4589;48.690;8.952;2023-05-02T10:20:04;19.03;;;17.13;;
9106;SDS011;4589;48.690;8.952;2023-05-02T10:22:32;20.77;;;18.73;;
9106;SDS011;4589;48.690;8.952;2023-05-02T10:24:58;20.27;;;18.30;;
9106;SDS011;4589;48.690;8.952;2023-05-02T10:27:24;21.33;;;19.17;;
9106;SDS011;4589;48.690;8.952;2023-05-02T10:29:50;21.83;;;18.77;;
9106;SDS011;4589;48.690;8.952;2023-05-02T10:32:17;22.53;;;19.97;;
9106;SDS011;4589;48.690;8.952;2023-05-02T10:34:43;27.90;;;21.83;;
9106;SDS011;4589;48.690;8.952;2023-05-02T10:37:09;22.00;;;19.50;;
9106;SDS011;4589;48.690;8.952;2023-05-02T10:39:35;20.83;;;18.00;;
9106;SDS011;4589;48.690;8.952;2023-05-02T10:42:02;19.53;;;17.63;;
9106;SDS011;4589;48.690;8.952;2023-05-02T10:44:33;19.07;;;16.13;;
9106;SDS011;4589;48.690;8.952;2023-05-02T10:46:59;18.70;;;16.57;;
9106;SDS011;4589;48.690;8.952;2023-05-02T10:49:25;18.00;;;16.23;;
9106;SDS011;4589;48.690;8.952;2023-05-02T10:51:51;17.30;;;15.60;;
9106;SDS011;4589;48.690;8.952;2023-05-02T10:54:18;18.13;;;15.70;;
9106;SDS011;4589;48.690;8.952;2023-05-02T10:59:29;19.93;;;17.40;;
9106;SDS011;4589;48.690;8.952;2023-05-02T11:05:02;19.10;;;16.77;;
9106;SDS011;4589;48.690;8.952;2023-05-02T11:07:32;16.40;;;14.77;;
9106;SDS011;4589;48.690;8.952;2023-05-02T11:15:11;18.63;;;16.73;;
9106;SDS011;4589;48.690;8.952;2023-05-02T11:20:39;19.57;;;17.53;;
9106;SDS011;4589;48.690;8.952;2023-05-02T11:25:43;19.50;;;17.37;;
9106;SDS011;4589;48.690;8.952;2023-05-02T11:30:58;20.30;;;17.27;;
9106;SDS011;4589;48.690;8.952;2023-05-02T11:33:25;18.83;;;15.27;;
9106;SDS011;4589;48.690;8.952;2023-05-02T11:35:52;23.07;;;17.40;;
9106;SDS011;4589;48.690;8.952;2023-05-02T11:38:18;22.03;;;19.17;;
9106;SDS011;4589;48.690;8.952;2023-05-02T11:40:49;19.87;;;17.77;;
9106;SDS011;4589;48.690;8.952;2023-05-02T11:43:26;18.10;;;16.30;;
9106;SDS011;4589;48.690;8.952;2023-05-02T11:45:53;20.03;;;16.10;;
9106;SDS011;4589;48.690;8.952;2023-05-02T11:48:19;18.37;;;16.47;;
9106;SDS011;4589;48.690;8.952;2023-05-02T11:50:47;16.90;;;15.20;;
9106;SDS011;4589;48.690;8.952;2023-05-02T11:53:18;15.50;;;14.00;;
9106;SDS011;4589;48.690;8.952;2023-05-02T11:55:49;17.50;;;15.67;;
9106;SDS011;4589;48.690;8.952;2023-05-02T11:58:19;15.23;;;13.73;;
9106;SDS011;4589;48.690;8.952;2023-05-02T12:00:46;16.50;;;14.30;;
9106;SDS011;4589;48.690;8.952;2023-05-02T12:05:46;18.43;;;15.33;;
9106;SDS011;4589;48.690;8.952;2023-05-02T12:08:17;17.73;;;15.50;;
9106;SDS011;4589;48.690;8.952;2023-05-02T12:10:44;18.97;;;15.43;;
9106;SDS011;4589;48.690;8.952;2023-05-02T12:13:10;19.53;;;17.53;;
9106;SDS011;4589;48.690;8.952;2023-05-02T12:15:35;19.93;;;17.83;;
9106;SDS011;4589;48.690;8.952;2023-05-02T12:18:01;21.67;;;19.33;;
9106;SDS011;4589;48.690;8.952;2023-05-02T12:20:27;23.37;;;17.97;;
9106;SDS011;4589;48.690;8.952;2023-05-02T12:22:53;22.00;;;17.80;;
9106;SDS011;4589;48.690;8.952;2023-05-02T12:25:19;18.07;;;16.00;;
9106;SDS011;4589;48.690;8.952;2023-05-02T12:28:00;20.67;;;18.43;;
9106;SDS011;4589;48.690;8.952;2023-05-02T12:30:27;24.77;;;21.10;;
9106;SDS011;4589;48.690;8.952;2023-05-02T12:32:57;22.10;;;19.67;;
9106;SDS011;4589;48.690;8.952;2023-05-02T12:35:25;22.93;;;20.60;;
9106;SDS011;4589;48.690;8.952;2023-05-02T12:37:51;21.97;;;18.57;;
9106;SDS011;4589;48.690;8.952;2023-05-02T12:40:18;22.40;;;18.83;;
9106;SDS011;4589;48.690;8.952;2023-05-02T12:43:05;18.87;;;16.90;;
9106;SDS011;4589;48.690;8.952;2023-05-02T12:45:32;17.73;;;15.90;;
9106;SDS011;4589;48.690;8.952;2023-05-02T12:47:59;19.53;;;17.37;;
9106;SDS011;4589;48.690;8.952;2023-05-02T12:50:38;21.33;;;19.07;;
9106;SDS011;4589;48.690;8.952;2023-05-02T12:53:03;22.20;;;18.97;;
9106;SDS011;4589;48.690;8.952;2023-05-02T12:55:30;20.73;;;18.53;;
9106;SDS011;4589;48.690;8.952;2023-05-02T12:58:03;20.23;;;17.13;;
9106;SDS011;4589;48.690;8.952;2023-05-02T13:00:30;21.87;;;18.70;;
9106;SDS011;4589;48.690;8.952;2023-05-02T13:02:56;24.80;;;19.40;;
9106;SDS011;4589;48.690;8.952;2023-05-02T13:05:22;23.50;;;18.10;;
9106;SDS011;4589;48.690;8.952;2023-05-02T13:07:48;26.83;;;18.10;;
9106;SDS011;4589;48.690;8.952;2023-05-02T13:10:14;24.40;;;16.00;;
9106;SDS011;4589;48.690;8.952;2023-05-02T13:12:42;21.43;;;17.50;;
9106;SDS011;4589;48.690;8.952;2023-05-02T13:15:08;29.63;;;17.20;;
9106;SDS011;4589;48.690;8.952;2023-05-02T13:17:34;22.60;;;17.57;;
9106;SDS011;4589;48.690;8.952;2023-05-02T13:19:59;23.87;;;17.00;;
9106;SDS011;4589;48.690;8.952;2023-05-02T13:22:25;25.73;;;19.60;;
9106;SDS011;4589;48.690;8.952;2023-05-02T13:24:51;23.60;;;18.53;;
9106;SDS011;4589;48.690;8.952;2023-05-02T13:27:17;25.50;;;19.50;;
9106;SDS011;4589;48.690;8.952;2023-05-02T13:29:43;25.40;;;19.10;;
9106;SDS011;4589;48.690;8.952;2023-05-02T13:32:09;25.60;;;19.60;;
9106;SDS011;4589;48.690;8.952;2023-05-02T13:34:35;28.47;;;21.03;;
9106;SDS011;4589;48.690;8.952;2023-05-02T13:37:01;26.33;;;20.03;;
9106;SDS011;4589;48.690;8.952;2023-05-02T13:39:27;22.57;;;18.23;;
9106;SDS011;4589;48.690;8.952;2023-05-02T13:41:52;24.17;;;18.77;;
9106;SDS011;4589;48.690;8.952;2023-05-02T13:44:18;21.87;;;16.80;;
9106;SDS011;4589;48.690;8.952;2023-05-02T13:46:44;23.40;;;17.30;;
9106;SDS011;4589;48.690;8.952;2023-05-02T13:49:09;25.53;;;17.77;;
9106;SDS011;4589;48.690;8.952;2023-05-02T13:51:35;22.83;;;17.43;;
9106;SDS011;4589;48.690;8.952;2023-05-02T13:54:01;20.77;;;16.73;;
9106;SDS011;4589;48.690;8.952;2023-05-02T13:56:27;18.33;;;15.00;;
9106;SDS011;4589;48.690;8.952;2023-05-02T13:58:52;20.63;;;16.40;;
9106;SDS011;4589;48.690;8.952;2023-05-02T14:01:18;20.67;;;15.23;;
9106;SDS011;4589;48.690;8.952;2023-05-02T14:03:44;19.43;;;15.33;;
9106;SDS011;4589;48.690;8.952;2023-05-02T14:06:09;23.77;;;15.93;;
9106;SDS011;4589;48.690;8.952;2023-05-02T14:08:35;18.30;;;15.33;;
9106;SDS011;4589;48.690;8.952;2023-05-02T14:11:01;17.37;;;14.07;;
9106;SDS011;4589;48.690;8.952;2023-05-02T14:13:27;16.77;;;13.00;;
9106;SDS011;4589;48.690;8.952;2023-05-02T14:15:52;18.57;;;13.60;;
9106;SDS011;4589;48.690;8.952;2023-05-02T14:18:18;14.17;;;11.33;;
9106;SDS011;4589;48.690;8.952;2023-05-02T14:20:44;13.27;;;11.03;;
9106;SDS011;4589;48.690;8.952;2023-05-02T14:23:11;14.23;;;11.17;;
9106;SDS011;4589;48.690;8.952;2023-05-02T14:25:37;15.10;;;11.83;;
9106;SDS011;4589;48.690;8.952;2023-05-02T14:28:03;15.50;;;12.60;;
9106;SDS011;4589;48.690;8.952;2023-05-02T14:30:29;18.63;;;11.70;;
9106;SDS011;4589;48.690;8.952;2023-05-02T14:32:55;16.17;;;12.53;;
9106;SDS011;4589;48.690;8.952;2023-05-02T14:35:21;12.40;;;10.17;;
9106;SDS011;4589;48.690;8.952;2023-05-02T14:37:47;12.13;;;9.97;;
9106;SDS011;4589;48.690;8.952;2023-05-02T14:40:12;12.80;;;10.20;;
9106;SDS011;4589;48.690;8.952;2023-05-02T14:42:39;12.30;;;10.70;;
9106;SDS011;4589;48.690;8.952;2023-05-02T14:45:05;17.33;;;11.33;;
9106;SDS011;4589;48.690;8.952;2023-05-02T14:47:32;14.47;;;10.47;;
9106;SDS011;4589;48.690;8.952;2023-05-02T14:49:57;12.50;;;10.00;;
9106;SDS011;4589;48.690;8.952;2023-05-02T14:52:23;12.33;;;10.73;;
9106;SDS011;4589;48.690;8.952;2023-05-02T14:54:48;12.97;;;11.27;;
9106;SDS011;4589;48.690;8.952;2023-05-02T14:57:14;11.10;;;9.70;;
9106;SDS011;4589;48.690;8.952;2023-05-02T14:59:40;14.90;;;9.47;;
9106;SDS011;4589;48.690;8.952;2023-05-02T15:02:06;14.47;;;9.57;;
9106;SDS011;4589;48.690;8.952;2023-05-02T15:04:32;21.37;;;11.97;;
9106;SDS011;4589;48.690;8.952;2023-05-02T15:07:01;14.87;;;9.47;;
9106;SDS011;4589;48.690;8.952;2023-05-02T15:09:27;12.63;;;9.30;;
9106;SDS011;4589;48.690;8.952;2023-05-02T15:11:53;13.40;;;10.20;;
9106;SDS011;4589;48.690;8.952;2023-05-02T15:14:19;13.60;;;8.07;;
9106;SDS011;4589;48.690;8.952;2023-05-02T15:16:45;12.10;;;9.70;;
9106;SDS011;4589;48.690;8.952;2023-05-02T15:19:10;14.00;;;10.10;;
9106;SDS011;4589;48.690;8.952;2023-05-02T15:21:36;13.33;;;10.80;;
9106;SDS011;4589;48.690;8.952;2023-05-02T15:24:02;10.23;;;8.70;;
9106;SDS011;4589;48.690;8.952;2023-05-02T15:26:29;11.17;;;8.90;;
9106;SDS011;4589;48.690;8.952;2023-05-02T15:28:54;12.70;;;8.90;;
9106;SDS011;4589;48.690;8.952;2023-05-02T15:31:20;10.00;;;7.97;;
9106;SDS011;4589;48.690;8.952;2023-05-02T15:33:46;11.53;;;8.60;;
9106;SDS011;4589;48.690;8.952;2023-05-02T15:36:12;8.50;;;6.43;;
9106;SDS011;4589;48.690;8.952;2023-05-02T15:38:38;9.10;;;6.93;;
9106;SDS011;4589;48.690;8.952;2023-05-02T15:41:06;6.00;;;4.70;;